Okaya, Japan
Current Conditions -  °F | °C
As of 8:00 PM on Thursday 27 Nov 2014 (Local Time) from RJNT Reporting Station
Broken Clouds Broken Clouds  
Wind Chill: 52°   Ceiling: 4300
Heat Index: 52°   Visibility: 6mi
Dew Point: 48°   Wind: 2mph
Humidity: 88%   Direction: NA
Pressure: 30.27"   Gusts: NA
Location:  36.06°N, 138.06°E
Report Text: RJNT 271100Z VRB02KT 9999 FEW030 BKN043 11/09 Q1025
Loading
Personal Weather Stations






























Interactive Weather Map New forecast layout! Learn more

10-Day Weather Forecast

Advertisements
Track Severe Weather on mobile